Time;durP1;ratioP1;P1;durP2;ratioP2;P2;SDS_P1;SDS_P2;PMS_P1;PMS_P2;Temp;Humidity;BMP_temperature;BMP_pressure;BME280_temperature;BME280_humidity;BME280_pressure;Samples;Min_cycle;Max_cycle;Signal;HPM_P1;HPM_P2
2021/09/14 00:00:17;;;;;;;22.98;16.12;;;;;;;18.13;64.66;100002.69;1745429;80;21014;-69
2021/09/14 00:02:43;;;;;;;20.85;16.55;;;;;;;18.13;64.84;100001.35;1744723;80;21792;-68
2021/09/14 00:05:10;;;;;;;19.95;15.70;;;;;;;18.09;64.92;100003.56;1750997;80;21036;-69
2021/09/14 00:07:38;;;;;;;21.57;15.58;;;;;;;18.10;64.96;100003.05;1744448;82;21000;-68
2021/09/14 00:10:06;;;;;;;18.92;15.78;;;;;;;18.09;64.95;100001.39;1747740;80;21462;-69
2021/09/14 00:12:34;;;;;;;19.85;15.85;;;;;;;18.08;64.95;100007.25;1744761;82;20984;-69
2021/09/14 00:15:00;;;;;;;20.85;16.02;;;;;;;18.05;65.04;100004.94;1756343;80;21767;-69
2021/09/14 00:17:27;;;;;;;19.07;16.02;;;;;;;18.03;65.19;100009.10;1757752;80;21484;-68
2021/09/14 00:19:53;;;;;;;21.07;16.00;;;;;;;18.01;65.43;100006.30;1766232;80;20929;-68
2021/09/14 00:22:21;;;;;;;21.12;16.55;;;;;;;18.00;65.52;100005.97;1775034;80;20925;-69
2021/09/14 00:24:47;;;;;;;20.25;15.08;;;;;;;18.02;65.58;100015.97;1765968;80;20993;-69
2021/09/14 00:27:14;;;;;;;21.52;15.15;;;;;;;18.03;65.67;100013.62;1768241;80;22160;-69
2021/09/14 00:29:40;;;;;;;21.23;15.58;;;;;;;18.01;65.76;100012.47;1745022;80;20973;-69
2021/09/14 00:32:07;;;;;;;21.62;15.48;;;;;;;17.99;65.80;100021.17;1754916;80;21036;-69
2021/09/14 00:34:33;;;;;;;21.17;15.43;;;;;;;18.00;65.87;100020.67;1761613;80;21043;-69
2021/09/14 00:37:00;;;;;;;17.60;14.68;;;;;;;17.98;66.01;100020.02;1746235;80;20992;-69
2021/09/14 00:39:28;;;;;;;17.25;13.90;;;;;;;17.95;66.19;100019.02;1744431;80;22867;-68
2021/09/14 00:41:54;;;;;;;16.85;13.90;;;;;;;17.95;66.14;100019.02;1744287;82;20940;-68
2021/09/14 00:44:20;;;;;;;20.52;14.05;;;;;;;17.96;66.21;100014.03;1761099;80;20984;-68
2021/09/14 00:46:48;;;;;;;18.95;13.75;;;;;;;17.96;66.18;100017.53;1759843;80;21009;-68
2021/09/14 00:49:15;;;;;;;16.65;13.98;;;;;;;17.96;66.20;100017.53;1761880;80;21423;-68
2021/09/14 00:51:42;;;;;;;19.17;13.58;;;;;;;17.97;66.29;100023.70;1744276;80;21752;-70
2021/09/14 00:54:16;;;;;;;18.15;14.43;;;;;;;17.95;66.41;100021.69;1694826;84;21033;-68
2021/09/14 00:56:43;;;;;;;16.97;13.53;;;;;;;17.92;66.51;100017.55;1683148;84;25306;-70
2021/09/14 00:59:10;;;;;;;20.02;13.85;;;;;;;17.92;66.56;100027.41;1685273;83;21557;-68
2021/09/14 01:01:36;;;;;;;16.97;13.62;;;;;;;17.91;66.57;100026.57;1756565;80;21403;-68
2021/09/14 01:04:04;;;;;;;16.02;13.62;;;;;;;17.91;66.56;100021.73;1758253;80;21803;-68
2021/09/14 01:06:32;;;;;;;17.52;13.90;;;;;;;17.93;66.59;100027.72;1742524;80;20978;-69
2021/09/14 01:09:01;;;;;;;17.35;14.05;;;;;;;17.92;66.73;100023.39;1741238;80;21499;-68
2021/09/14 01:11:29;;;;;;;18.95;13.85;;;;;;;17.89;66.96;100029.10;1744888;80;20992;-68
2021/09/14 01:14:04;;;;;;;16.57;13.78;;;;;;;17.86;67.01;100031.62;1759313;80;21032;-68
2021/09/14 01:16:34;;;;;;;16.32;13.75;;;;;;;17.85;67.34;100035.79;1764542;80;21827;-69
2021/09/14 01:19:07;;;;;;;20.08;14.00;;;;;;;17.84;67.35;100038.97;1761411;80;21119;-68
2021/09/14 01:21:36;;;;;;;17.73;14.33;;;;;;;17.85;67.39;100035.28;1744421;82;21400;-68
2021/09/14 01:24:04;;;;;;;20.25;14.75;;;;;;;17.85;67.39;100045.97;1744388;80;20983;-70
2021/09/14 01:26:33;;;;;;;18.70;14.53;;;;;;;17.85;67.45;100039.80;1744551;80;20946;-68
2021/09/14 01:29:08;;;;;;;20.20;14.55;;;;;;;17.85;67.40;100037.13;1736120;80;21856;-68
2021/09/14 01:31:36;;;;;;;20.30;14.38;;;;;;;17.85;67.46;100032.61;1762216;80;21016;-68
2021/09/14 01:34:03;;;;;;;16.95;14.73;;;;;;;17.82;67.51;100030.81;1756902;80;20929;-69
2021/09/14 01:36:32;;;;;;;19.05;15.28;;;;;;;17.81;67.67;100034.49;1744469;80;21457;-68
2021/09/14 01:38:59;;;;;;;18.55;15.20;;;;;;;17.76;67.77;100031.50;1744447;82;20993;-68
2021/09/14 01:41:26;;;;;;;16.73;14.43;;;;;;;17.72;67.78;100038.55;1744591;80;21830;-68
2021/09/14 01:43:53;;;;;;;19.05;15.05;;;;;;;17.72;67.92;100035.05;1744364;80;20940;-69
2021/09/14 01:46:19;;;;;;;18.10;15.00;;;;;;;17.71;67.99;100033.38;1758573;80;20997;-69
2021/09/14 01:48:46;;;;;;;18.73;14.98;;;;;;;17.72;68.08;100031.04;1757245;80;21181;-68
2021/09/14 01:51:13;;;;;;;19.37;15.13;;;;;;;17.69;68.26;100035.38;1772936;80;20925;-68
2021/09/14 01:53:41;;;;;;;17.87;15.05;;;;;;;17.65;68.33;100036.21;1772296;80;21887;-68
2021/09/14 01:56:08;;;;;;;21.80;15.55;;;;;;;17.66;68.41;100032.56;1738982;82;21500;-68
2021/09/14 01:58:37;;;;;;;17.73;15.10;;;;;;;17.67;68.61;100032.05;1744540;80;21063;-69
2021/09/14 02:01:18;;;;;;;18.57;15.58;;;;;;;17.66;68.63;100038.38;1745707;80;21008;-68
2021/09/14 02:04:31;;;;;;;15.90;14.10;;;;;;;17.66;68.71;100039.23;1743423;80;21455;-68
2021/09/14 02:23:46;;;;;;;18.65;15.15;;;;;;;17.67;68.90;100037.39;1761268;80;20935;-68
2021/09/14 02:42:07;;;;;;;20.05;15.20;;;;;;;17.63;69.41;100042.23;1746520;80;20988;-68
2021/09/14 03:00:54;;;;;;;22.17;16.30;;;;;;;17.65;69.58;100064.25;1751426;80;21810;-68
2021/09/14 03:03:20;;;;;;;21.05;16.75;;;;;;;17.62;69.73;100078.47;1744393;82;21487;-68
2021/09/14 03:05:47;;;;;;;22.90;16.55;;;;;;;17.61;69.80;100072.80;1766208;80;21012;-67
2021/09/14 03:08:17;;;;;;;21.33;16.70;;;;;;;17.61;69.84;100076.81;1749312;80;21036;-68
2021/09/14 03:10:46;;;;;;;19.45;16.35;;;;;;;17.64;69.87;100075.11;1744681;80;21401;-69
2021/09/14 03:13:13;;;;;;;22.77;17.05;;;;;;;17.64;69.84;100075.95;1746122;80;22696;-68
2021/09/14 03:15:39;;;;;;;20.12;16.62;;;;;;;17.65;69.87;100078.94;1762463;80;20972;-68
2021/09/14 03:18:08;;;;;;;19.90;17.20;;;;;;;17.67;69.81;100080.13;1757358;80;20986;-68
2021/09/14 03:20:37;;;;;;;20.17;16.37;;;;;;;17.68;69.80;100081.80;1758454;80;21114;-67
2021/09/14 03:23:04;;;;;;;21.07;16.90;;;;;;;17.66;69.69;100077.97;1781052;80;20920;-68
2021/09/14 03:25:32;;;;;;;20.23;16.35;;;;;;;17.68;69.63;100084.47;1763601;80;21419;-67
2021/09/14 03:27:59;;;;;;;21.42;16.97;;;;;;;17.67;69.64;100092.15;1752913;80;21458;-68
2021/09/14 03:30:26;;;;;;;19.35;16.35;;;;;;;17.65;69.67;100095.47;1723471;80;20996;-68
2021/09/14 03:32:54;;;;;;;20.23;16.85;;;;;;;17.63;69.59;100096.16;1753562;80;20948;-68
2021/09/14 03:35:21;;;;;;;19.98;16.87;;;;;;;17.61;69.64;100094.17;1753115;80;21007;-68
2021/09/14 03:37:48;;;;;;;22.52;16.50;;;;;;;17.59;69.70;100096.19;1752883;80;22216;-68
2021/09/14 03:40:16;;;;;;;21.77;16.97;;;;;;;17.54;69.91;100095.36;1758549;80;20932;-72
2021/09/14 03:42:42;;;;;;;23.92;17.70;;;;;;;17.49;70.04;100096.40;1757056;80;20956;-68
2021/09/14 03:45:09;;;;;;;20.50;16.67;;;;;;;17.47;70.13;100099.75;1752304;80;20961;-69
2021/09/14 03:47:36;;;;;;;22.42;16.57;;;;;;;17.43;70.21;100099.24;1772684;80;20917;-68
2021/09/14 03:50:04;;;;;;;22.30;16.00;;;;;;;17.44;70.25;100098.73;1728071;82;22828;-69
2021/09/14 03:52:32;;;;;;;20.90;16.32;;;;;;;17.44;70.43;100098.23;1780559;80;20916;-68
2021/09/14 03:55:00;;;;;;;20.95;17.23;;;;;;;17.45;70.50;100102.56;1779949;80;21003;-69
2021/09/14 03:57:29;;;;;;;23.83;17.35;;;;;;;17.46;70.51;100106.06;1763382;80;21022;-71
2021/09/14 03:59:56;;;;;;;20.30;17.20;;;;;;;17.47;70.57;100107.76;1729128;80;21305;-69
2021/09/14 04:07:49;;;;;;;21.45;17.37;;;;;;;17.46;70.84;100118.91;1766247;80;21418;-70
2021/09/14 04:10:07;;;;;;;21.62;17.07;;;;;;;17.50;70.91;100123.93;1750814;80;21493;-71
2021/09/14 04:12:35;;;;;;;24.55;18.10;;;;;;;17.52;70.95;100129.92;1750683;80;20998;-71
2021/09/14 04:15:06;;;;;;;19.32;17.10;;;;;;;17.50;71.23;100126.09;1754121;80;21379;-70
2021/09/14 04:17:33;;;;;;;23.83;16.82;;;;;;;17.48;71.30;100129.95;1753170;80;20951;-71
2021/09/14 04:20:01;;;;;;;21.42;17.40;;;;;;;17.51;71.31;100134.94;1755017;80;21044;-72
2021/09/14 04:22:27;;;;;;;20.95;17.77;;;;;;;17.51;71.31;100142.45;1771457;80;21062;-71
2021/09/14 04:24:55;;;;;;;20.10;17.52;;;;;;;17.51;71.39;100143.78;1759271;80;21396;-74
2021/09/14 04:27:22;;;;;;;21.55;18.05;;;;;;;17.52;71.43;100146.78;1760839;81;22796;-69
2021/09/14 04:29:49;;;;;;;21.77;17.00;;;;;;;17.54;71.44;100150.10;1765163;81;20982;-70
2021/09/14 04:32:15;;;;;;;20.08;17.37;;;;;;;17.55;71.52;100153.09;1763632;80;21039;-67
2021/09/14 04:34:42;;;;;;;19.98;17.52;;;;;;;17.52;71.58;100156.63;1766429;80;20937;-68
2021/09/14 04:37:08;;;;;;;19.42;17.32;;;;;;;17.52;71.66;100159.30;1767500;80;21012;-69
2021/09/14 04:39:35;;;;;;;21.25;17.82;;;;;;;17.54;71.74;100166.13;1781856;80;22208;-72
2021/09/14 04:42:02;;;;;;;21.17;16.77;;;;;;;17.53;71.75;100158.29;1731872;82;21017;-70
2021/09/14 04:44:29;;;;;;;22.37;17.10;;;;;;;17.56;71.77;100166.78;1756026;80;21043;-69
2021/09/14 04:46:56;;;;;;;21.57;17.40;;;;;;;17.59;71.77;100167.80;1735748;80;20988;-71
2021/09/14 04:49:23;;;;;;;23.62;17.05;;;;;;;17.59;71.91;100174.97;1725664;82;20943;-70
2021/09/14 04:51:50;;;;;;;18.57;15.25;;;;;;;17.58;72.00;100171.97;1752254;80;21405;-69
2021/09/14 04:54:18;;;;;;;18.17;16.27;;;;;;;17.61;71.99;100173.79;1728826;82;21483;-70
2021/09/14 04:56:45;;;;;;;22.40;16.62;;;;;;;17.65;71.97;100171.09;1752502;82;21363;-70
2021/09/14 04:59:12;;;;;;;20.60;16.35;;;;;;;17.71;71.93;100166.94;1772144;80;20940;-69
2021/09/14 05:01:39;;;;;;;21.77;16.32;;;;;;;17.77;71.87;100168.10;1783276;80;20988;-71
2021/09/14 05:04:05;;;;;;;20.40;16.17;;;;;;;17.82;71.78;100172.41;1783358;79;21880;-69
2021/09/14 05:06:32;;;;;;;20.60;16.82;;;;;;;17.90;71.68;100165.69;1767019;79;20948;-70
2021/09/14 05:09:00;;;;;;;20.00;16.73;;;;;;;17.96;71.53;100170.35;1752408;82;20988;-70
2021/09/14 05:11:27;;;;;;;19.20;16.62;;;;;;;18.02;71.39;100169.63;1752862;80;20947;-72
2021/09/14 05:13:53;;;;;;;20.23;16.15;;;;;;;18.11;71.29;100174.44;1752429;80;20948;-71
2021/09/14 05:16:20;;;;;;;19.10;16.45;;;;;;;18.20;71.16;100172.87;1781894;80;22202;-70
2021/09/14 05:19:08;;;;;;;20.00;16.40;;;;;;;18.26;70.96;100170.85;1770719;80;21494;-70
2021/09/14 05:21:59;;;;;;;18.73;14.83;;;;;;;18.30;70.79;100168.64;1759960;80;21474;-69
2021/09/14 05:24:04;;;;;;;18.17;14.83;;;;;;;18.37;70.71;100169.61;1747738;80;21059;-70
2021/09/14 05:26:32;;;;;;;19.05;14.73;;;;;;;18.46;70.65;100171.22;1763650;80;21407;-70
2021/09/14 05:28:59;;;;;;;19.07;14.85;;;;;;;18.53;70.46;100170.02;1767860;80;22620;-70
2021/09/14 05:31:26;;;;;;;18.23;15.00;;;;;;;18.60;70.21;100167.77;1751330;80;20999;-69
2021/09/14 05:33:52;;;;;;;18.15;14.60;;;;;;;18.63;69.93;100175.13;1750064;82;21459;-69
2021/09/14 05:36:19;;;;;;;16.30;14.60;;;;;;;18.63;69.77;100175.95;1750061;81;21196;-69
2021/09/14 05:38:46;;;;;;;16.35;13.50;;;;;;;18.59;69.73;100174.12;1759681;80;20933;-69
2021/09/14 05:41:13;;;;;;;18.82;13.32;;;;;;;18.61;69.62;100181.97;1776786;80;22178;-70
2021/09/14 05:43:41;;;;;;;18.23;13.48;;;;;;;18.59;69.36;100187.50;1721502;82;21048;-69
2021/09/14 05:46:08;;;;;;;15.55;11.95;;;;;;;18.58;69.18;100192.53;1757592;80;21035;-69
2021/09/14 05:48:35;;;;;;;14.10;12.43;;;;;;;18.59;68.98;100190.68;1757554;80;20948;-69
2021/09/14 05:51:02;;;;;;;14.58;12.33;;;;;;;18.59;68.83;100200.05;1776182;80;21327;-69
2021/09/14 05:53:31;;;;;;;14.07;11.80;;;;;;;18.61;68.71;100189.98;1770580;80;21847;-69
2021/09/14 05:55:58;;;;;;;13.08;11.12;;;;;;;18.66;68.53;100197.02;1750845;80;21027;-69
2021/09/14 05:58:26;;;;;;;13.10;11.00;;;;;;;18.72;68.32;100194.98;1766838;80;21115;-69
2021/09/14 06:00:53;;;;;;;12.75;10.32;;;;;;;18.79;68.05;100196.42;1753710;80;20971;-69
2021/09/14 06:03:20;;;;;;;13.10;10.25;;;;;;;18.86;67.79;100195.52;1764727;80;21094;-69
2021/09/14 06:05:46;;;;;;;15.25;10.65;;;;;;;18.99;67.66;100192.73;1764701;80;22179;-69
2021/09/14 06:08:13;;;;;;;12.80;10.48;;;;;;;19.15;67.15;100195.28;1758506;80;21006;-67
2021/09/14 06:10:41;;;;;;;12.68;10.00;;;;;;;19.30;66.39;100197.48;1759482;80;21058;-71
2021/09/14 06:13:11;;;;;;;13.05;9.10;;;;;;;19.46;66.10;100195.12;1762670;80;20976;-69
2021/09/14 06:15:38;;;;;;;10.30;8.38;;;;;;;19.61;65.61;100195.19;1770175;80;21485;-68
2021/09/14 06:18:05;;;;;;;10.53;8.58;;;;;;;19.73;64.79;100197.72;1761897;80;22819;-69
2021/09/14 06:20:34;;;;;;;13.50;8.30;;;;;;;19.85;64.36;100196.73;1765891;80;21098;-68
2021/09/14 06:23:00;;;;;;;8.60;7.10;;;;;;;19.96;64.02;100201.11;1765548;79;21023;-68
2021/09/14 06:25:27;;;;;;;9.30;7.58;;;;;;;20.09;63.16;100210.36;1751026;82;22069;-69
2021/09/14 06:27:55;;;;;;;11.78;7.58;;;;;;;20.13;62.72;100201.73;1752152;82;21048;-68
2021/09/14 06:30:22;;;;;;;10.18;8.45;;;;;;;20.20;62.33;100201.83;1752069;82;22205;-68
2021/09/14 06:32:48;;;;;;;12.18;8.90;;;;;;;20.25;62.18;100206.09;1751908;82;21059;-67
2021/09/14 06:35:17;;;;;;;9.28;7.72;;;;;;;20.30;61.89;100200.50;1751954;82;20949;-69
2021/09/14 06:37:45;;;;;;;10.32;8.53;;;;;;;20.33;61.85;100198.45;1752058;82;21431;-67
2021/09/14 06:40:12;;;;;;;8.53;7.60;;;;;;;20.39;61.86;100195.85;1753523;80;21035;-67
2021/09/14 06:42:39;;;;;;;10.20;6.72;;;;;;;20.44;61.49;100193.45;1752385;81;22218;-68
2021/09/14 06:45:23;;;;;;;;;;;;;;;20.51;61.05;100195.70;1751429;80;20952;-69
2021/09/14 06:47:51;;;;;;;11.68;7.60;;;;;;;20.64;61.06;100197.67;1715717;83;20141;-69
2021/09/14 06:50:22;;;;;;;6.53;5.83;;;;;;;20.76;61.13;100193.48;1716313;83;21076;-66
2021/09/14 06:52:48;;;;;;;9.98;6.30;;;;;;;20.93;60.24;100195.88;1716142;82;20986;-67
2021/09/14 06:55:15;;;;;;;13.45;6.37;;;;;;;21.10;58.98;100199.95;1716623;83;22456;-67
2021/09/14 06:57:43;;;;;;;7.12;6.22;;;;;;;21.20;58.66;100199.10;1736941;82;20984;-68
2021/09/14 07:00:12;;;;;;;7.30;5.90;;;;;;;21.30;58.44;100197.45;1746020;82;21017;-68
2021/09/14 07:02:40;;;;;;;8.73;6.22;;;;;;;21.41;58.17;100201.76;1745949;82;21013;-68
2021/09/14 07:05:10;;;;;;;7.85;6.45;;;;;;;21.53;57.85;100207.95;1746052;82;20985;-68
2021/09/14 07:07:37;;;;;;;7.25;6.00;;;;;;;21.57;57.84;100206.01;1746291;82;21816;-67
2021/09/14 07:10:06;;;;;;;8.35;6.30;;;;;;;21.66;57.57;100202.14;1746202;82;20954;-68
2021/09/14 07:12:34;;;;;;;6.25;5.62;;;;;;;21.74;57.17;100205.19;1746100;82;20950;-68
2021/09/14 07:15:02;;;;;;;7.78;5.80;;;;;;;21.81;56.33;100204.72;1744964;82;20993;-69
2021/09/14 07:17:31;;;;;;;8.18;5.17;;;;;;;21.82;56.09;100206.37;1746084;82;20962;-68
2021/09/14 07:19:57;;;;;;;6.28;3.98;;;;;;;21.85;55.76;100199.76;1783390;80;21769;-68
2021/09/14 07:22:25;;;;;;;9.10;4.78;;;;;;;21.91;54.84;100201.66;1783313;80;20972;-68
2021/09/14 07:24:52;;;;;;;5.80;4.40;;;;;;;21.96;53.55;100195.98;1783802;80;21012;-69
2021/09/14 07:27:19;;;;;;;8.65;4.50;;;;;;;22.05;53.44;100202.53;1784326;80;20994;-68
2021/09/14 07:29:45;;;;;;;5.92;4.45;;;;;;;22.14;52.82;100206.23;1784068;80;20949;-70
2021/09/14 07:32:12;;;;;;;10.13;3.75;;;;;;;22.18;52.61;100199.40;1783391;80;21844;-69
2021/09/14 07:34:40;;;;;;;4.50;3.70;;;;;;;22.24;51.72;100201.30;1785534;79;20972;-70
2021/09/14 07:37:06;;;;;;;7.55;4.25;;;;;;;22.32;50.88;100204.84;1785545;80;20932;-71
2021/09/14 07:39:33;;;;;;;6.28;4.72;;;;;;;22.42;51.28;100199.91;1753715;80;20984;-70
2021/09/14 07:42:00;;;;;;;5.47;4.70;;;;;;;22.47;51.06;100203.63;1783576;80;21459;-70
2021/09/14 07:44:26;;;;;;;5.87;4.60;;;;;;;22.52;51.10;100203.86;1783424;80;21867;-71
2021/09/14 07:46:53;;;;;;;4.83;4.28;;;;;;;22.62;51.60;100202.13;1783304;80;20916;-70
2021/09/14 07:49:19;;;;;;;4.80;4.30;;;;;;;22.74;50.56;100198.30;1781996;80;20988;-71
2021/09/14 07:51:46;;;;;;;7.25;4.20;;;;;;;22.76;49.64;100202.44;1772569;80;20940;-71
2021/09/14 07:54:13;;;;;;;9.18;4.10;;;;;;;22.70;49.86;100195.20;1752572;82;20944;-69
2021/09/14 07:56:39;;;;;;;6.47;3.67;;;;;;;22.77;49.88;100187.94;1752442;82;22778;-69
2021/09/14 07:59:06;;;;;;;4.97;3.50;;;;;;;22.84;49.00;100198.23;1752397;81;21040;-69
2021/09/14 08:01:33;;;;;;;3.77;3.27;;;;;;;22.78;48.33;100191.48;1752438;82;20971;-67
2021/09/14 08:03:59;;;;;;;6.10;3.40;;;;;;;22.73;48.55;100196.65;1752786;80;21000;-69
2021/09/14 08:06:26;;;;;;;4.20;3.80;;;;;;;22.72;48.56;100194.99;1752061;80;20976;-70
2021/09/14 08:08:52;;;;;;;6.50;3.85;;;;;;;22.71;48.70;100201.41;1783606;80;21782;-70
2021/09/14 08:11:19;;;;;;;4.87;3.83;;;;;;;22.67;49.21;100211.75;1783222;80;20976;-72
2021/09/14 08:13:49;;;;;;;5.72;4.00;;;;;;;22.71;49.45;100206.28;1783432;80;21012;-70
2021/09/14 08:16:15;;;;;;;5.75;4.00;;;;;;;22.79;49.65;100199.87;1783351;80;20956;-71
2021/09/14 08:18:42;;;;;;;7.53;4.40;;;;;;;22.89;49.72;100200.33;1783416;80;21020;-70
2021/09/14 08:21:08;;;;;;;11.30;5.75;;;;;;;22.97;49.90;100200.13;1782157;79;22794;-70
2021/09/14 08:23:37;;;;;;;5.67;5.08;;;;;;;22.97;50.40;100202.83;1781658;79;20926;-68
2021/09/14 08:26:03;;;;;;;9.35;4.90;;;;;;;22.99;51.15;100199.92;1778373;80;20929;-69
2021/09/14 08:28:29;;;;;;;6.35;5.45;;;;;;;23.15;50.97;100202.17;1778404;80;20937;-69
2021/09/14 08:30:56;;;;;;;7.03;5.10;;;;;;;23.21;50.48;100195.97;1778521;80;20925;-70
2021/09/14 08:33:23;;;;;;;6.45;4.97;;;;;;;23.18;50.62;100196.92;1778439;80;21713;-69
2021/09/14 08:35:50;;;;;;;7.08;4.80;;;;;;;23.18;50.08;100196.39;1778410;80;20964;-69
2021/09/14 08:38:17;;;;;;;5.83;4.20;;;;;;;23.17;50.15;100206.87;1777235;80;21408;-69
2021/09/14 08:40:43;;;;;;;7.75;4.37;;;;;;;23.14;48.87;100200.52;1778309;80;21055;-68
2021/09/14 08:43:13;;;;;;;9.15;4.65;;;;;;;23.16;49.42;100195.75;1778374;80;20984;-68
2021/09/14 08:45:41;;;;;;;6.87;4.20;;;;;;;23.29;48.84;100194.94;1778434;79;20980;-68
2021/09/14 08:48:08;;;;;;;5.65;4.03;;;;;;;23.42;47.88;100187.64;1778316;80;21024;-68
2021/09/14 08:50:34;;;;;;;9.33;5.25;;;;;;;23.54;47.76;100195.91;1778647;80;20933;-68
2021/09/14 08:53:01;;;;;;;5.62;4.67;;;;;;;23.60;49.14;100192.41;1723955;82;21015;-69
2021/09/14 08:55:28;;;;;;;6.97;5.72;;;;;;;23.64;49.54;100195.02;1748817;80;21070;-69
2021/09/14 08:57:55;;;;;;;6.10;4.70;;;;;;;23.61;49.47;100181.94;1764293;80;22241;-69
2021/09/14 09:00:31;;;;;;;37.13;17.57;;;;;;;23.58;49.14;100192.30;1749578;80;21005;-70
2021/09/14 09:02:58;;;;;;;13.20;8.18;;;;;;;23.57;49.35;100191.47;1747617;82;21035;-70
2021/09/14 09:05:33;;;;;;;6.95;4.90;;;;;;;23.58;49.05;100198.52;1683470;84;20981;-70
2021/09/14 09:08:01;;;;;;;7.00;4.10;;;;;;;23.52;48.81;100193.13;1743979;82;21005;-70
2021/09/14 09:10:33;;;;;;;4.33;3.70;;;;;;;23.34;48.75;100194.59;1709624;82;22216;-72
2021/09/14 09:13:04;;;;;;;5.22;3.95;;;;;;;23.14;49.15;100204.05;1760131;80;21449;-71
2021/09/14 09:15:33;;;;;;;4.95;4.05;;;;;;;22.99;49.59;100206.14;1778130;80;20992;-68
2021/09/14 09:18:09;;;;;;;7.10;4.00;;;;;;;22.94;49.90;100201.05;1778393;80;21466;-70
2021/09/14 09:20:38;;;;;;;5.40;3.92;;;;;;;22.99;49.73;100194.02;1749999;80;20948;-69
2021/09/14 09:23:12;;;;;;;5.80;4.25;;;;;;;23.16;49.10;100189.53;1778627;80;21789;-68
2021/09/14 09:25:39;;;;;;;4.80;3.93;;;;;;;23.32;48.95;100187.25;1778603;80;21020;-69
2021/09/14 09:28:16;;;;;;;7.35;3.65;;;;;;;23.44;48.48;100186.08;1778343;80;20929;-70
2021/09/14 09:30:57;;;;;;;4.42;4.00;;;;;;;23.51;48.84;100194.17;1777224;80;21028;-70
2021/09/14 09:33:26;;;;;;;6.80;3.83;;;;;;;23.63;47.70;100191.16;1778406;80;20940;-70
2021/09/14 09:36:08;;;;;;;7.53;4.40;;;;;;;23.56;48.07;100188.47;1778698;80;22477;-70
2021/09/14 09:38:46;;;;;;;8.65;4.30;;;;;;;23.49;47.97;100192.20;1778310;80;20929;-70
2021/09/14 09:41:18;;;;;;;6.00;4.00;;;;;;;23.47;48.41;100191.59;1778844;80;21014;-70
2021/09/14 09:43:44;;;;;;;5.58;3.55;;;;;;;23.62;48.24;100190.33;1778006;80;20992;-69
2021/09/14 09:46:20;;;;;;;3.77;3.42;;;;;;;23.90;47.76;100192.73;1777177;80;20972;-70
2021/09/14 09:48:47;;;;;;;4.67;3.47;;;;;;;24.24;46.45;100190.73;1778347;80;22743;-70
2021/09/14 09:51:14;;;;;;;4.12;3.30;;;;;;;24.53;44.68;100190.19;1774661;80;20928;-70
2021/09/14 09:53:40;;;;;;;3.50;3.08;;;;;;;24.70;44.53;100190.99;1747467;80;21011;-70
2021/09/14 09:56:07;;;;;;;5.20;3.40;;;;;;;24.85;44.59;100183.41;1747812;82;20947;-70
2021/09/14 09:58:33;;;;;;;6.60;4.25;;;;;;;25.02;44.02;100183.20;1747573;82;20956;-70
2021/09/14 10:01:14;;;;;;;5.55;4.00;;;;;;;25.18;43.08;100189.91;1747788;82;22872;-70
2021/09/14 10:04:16;;;;;;;6.17;3.25;;;;;;;25.24;42.64;100189.03;1748476;80;21027;-70
2021/09/14 10:06:52;;;;;;;5.75;3.20;;;;;;;25.29;41.99;100182.45;1724280;83;21005;-70
2021/09/14 10:09:20;;;;;;;3.62;2.87;;;;;;;25.56;41.42;100189.75;1724317;83;21063;-70
2021/09/14 10:11:54;;;;;;;4.90;2.58;;;;;;;25.63;40.81;100188.33;1736603;82;20957;-70
2021/09/14 10:14:22;;;;;;;3.72;2.77;;;;;;;25.57;40.76;100184.64;1747607;82;20977;-70
2021/09/14 10:16:49;;;;;;;5.53;3.05;;;;;;;25.59;40.87;100181.20;1720243;82;21392;-70
2021/09/14 10:19:31;;;;;;;5.85;2.60;;;;;;;25.69;40.09;100190.98;1720648;82;20992;-68
2021/09/14 10:22:04;;;;;;;4.47;2.40;;;;;;;25.72;39.71;100183.48;1748601;80;21181;-68
2021/09/14 10:24:31;;;;;;;5.15;2.80;;;;;;;25.76;39.47;100193.62;1747826;82;21051;-69
2021/09/14 10:27:13;;;;;;;3.33;2.50;;;;;;;25.77;39.49;100190.39;1747702;82;21892;-69
2021/09/14 10:29:41;;;;;;;3.42;2.40;;;;;;;25.89;38.74;100194.02;1747584;82;21415;-71
2021/09/14 10:32:13;;;;;;;4.90;2.55;;;;;;;26.03;38.42;100192.78;1747608;82;21023;-71
2021/09/14 10:34:54;;;;;;;3.72;2.40;;;;;;;26.19;38.00;100192.70;1747629;82;21028;-71
2021/09/14 10:37:21;;;;;;;4.50;2.40;;;;;;;26.35;38.50;100193.95;1724825;80;21523;-71
2021/09/14 10:39:47;;;;;;;2.35;1.80;;;;;;;26.60;37.10;100200.59;1747704;82;21832;-71
2021/09/14 10:42:21;;;;;;;2.33;2.02;;;;;;;26.70;37.16;100194.91;1747656;82;21360;-71
2021/09/14 10:44:51;;;;;;;4.85;2.15;;;;;;;26.76;35.95;100193.98;1747833;81;21581;-71
2021/09/14 10:47:20;;;;;;;4.00;1.92;;;;;;;26.70;36.70;100189.48;1747618;82;20985;-71
2021/09/14 10:50:00;;;;;;;5.80;2.85;;;;;;;26.64;35.91;100189.08;1747598;82;21464;-72
2021/09/14 10:52:39;;;;;;;3.80;1.90;;;;;;;26.69;36.25;100180.24;1747784;80;22471;-70
2021/09/14 10:55:15;;;;;;;3.65;2.20;;;;;;;26.79;35.82;100181.32;1761074;80;20975;-71
2021/09/14 10:57:46;;;;;;;3.65;2.40;;;;;;;26.90;36.33;100181.57;1778457;79;20977;-71
2021/09/14 11:00:15;;;;;;;3.90;2.20;;;;;;;27.03;35.65;100178.70;1778361;80;20980;-72
2021/09/14 11:02:57;;;;;;;3.72;2.40;;;;;;;27.10;34.84;100175.32;1778526;80;46645;-71
2021/09/14 11:05:29;;;;;;;5.50;2.20;;;;;;;27.06;34.91;100171.44;1742123;80;21835;-71
2021/09/14 11:08:02;;;;;;;5.28;2.15;;;;;;;26.97;35.31;100161.44;1778503;80;20884;-70
2021/09/14 11:10:44;;;;;;;2.45;2.10;;;;;;;26.95;34.58;100177.12;1778398;80;21454;-70
2021/09/14 11:13:24;;;;;;;5.10;2.52;;;;;;;26.95;34.94;100174.41;1777372;80;21460;-70
2021/09/14 11:16:05;;;;;;;2.83;2.33;;;;;;;27.12;34.83;100168.30;1778816;80;20993;-70
2021/09/14 11:18:34;;;;;;;5.95;2.37;;;;;;;27.34;34.48;100168.03;1778725;80;21793;-70
2021/09/14 11:21:10;;;;;;;3.60;2.30;;;;;;;27.43;34.39;100157.64;1778264;80;21387;-70
2021/09/14 11:23:42;;;;;;;4.80;2.35;;;;;;;27.47;34.54;100154.20;1778716;80;20988;-70
2021/09/14 11:26:11;;;;;;;3.15;2.65;;;;;;;27.59;34.30;100157.72;1778481;80;20985;-69
2021/09/14 11:28:39;;;;;;;3.08;2.00;;;;;;;27.73;33.44;100167.01;1777320;80;21444;-69
2021/09/14 11:31:13;;;;;;;3.20;2.50;;;;;;;27.63;33.30;100166.22;1778393;80;22273;-70
2021/09/14 11:33:42;;;;;;;2.70;2.20;;;;;;;27.54;33.03;100155.45;1778408;80;21380;-69
2021/09/14 11:36:08;;;;;;;3.85;2.25;;;;;;;27.51;33.19;100163.53;1750200;80;21035;-69
2021/09/14 11:38:37;;;;;;;5.08;2.30;;;;;;;27.39;33.88;100163.52;1778469;80;20949;-70
2021/09/14 11:41:10;;;;;;;2.90;2.35;;;;;;;27.33;33.72;100153.64;1778583;80;20913;-69
2021/09/14 11:43:37;;;;;;;3.98;2.47;;;;;;;27.44;34.03;100152.52;1778836;80;23662;-70
2021/09/14 11:46:17;;;;;;;3.55;2.17;;;;;;;27.62;33.77;100154.55;1777092;80;20937;-70
2021/09/14 11:49:00;;;;;;;4.85;2.17;;;;;;;27.74;33.16;100146.41;1778492;80;20928;-69
2021/09/14 11:51:28;;;;;;;3.02;2.15;;;;;;;27.82;32.31;100147.39;1771471;80;20976;-70
2021/09/14 11:53:55;;;;;;;4.95;2.10;;;;;;;27.93;32.17;100145.17;1747603;82;21403;-69
2021/09/14 11:56:27;;;;;;;6.78;2.08;;;;;;;28.03;32.49;100141.01;1747504;82;21463;-70
2021/09/14 11:58:54;;;;;;;3.47;2.10;;;;;;;28.23;32.83;100142.75;1751299;80;20941;-70
2021/09/14 12:01:25;;;;;;;5.80;2.35;;;;;;;28.58;32.52;100144.50;1762672;80;21015;-70
2021/09/14 12:03:53;;;;;;;2.45;1.85;;;;;;;28.90;31.69;100140.16;1769948;80;20989;-69
2021/09/14 12:06:28;;;;;;;4.53;2.25;;;;;;;28.96;30.55;100150.06;1778389;80;21445;-69
2021/09/14 12:09:07;;;;;;;3.37;2.10;;;;;;;28.78;30.83;100136.14;1778341;80;22429;-70
2021/09/14 12:11:33;;;;;;;5.22;2.30;;;;;;;28.72;31.27;100140.38;1776833;80;20973;-70
2021/09/14 12:14:04;;;;;;;4.17;2.30;;;;;;;28.84;31.34;100137.03;1778428;79;21348;-69
2021/09/14 12:16:37;;;;;;;4.22;2.17;;;;;;;28.82;31.40;100136.47;1778368;80;21028;-69
2021/09/14 12:19:03;;;;;;;6.40;2.33;;;;;;;28.82;31.04;100141.08;1777249;80;20930;-71